createdAt,value
2017-11-23T20:16:04.265Z,12.00
2017-11-23T20:17:11.561Z,12.00
2017-11-23T20:18:17.035Z,12.00
2017-11-23T20:19:21.577Z,12.00
2017-11-23T20:20:26.121Z,12.00
2017-11-23T20:21:31.133Z,12.10
2017-11-23T20:22:35.857Z,12.10
2017-11-23T20:23:41.027Z,12.10
2017-11-23T20:24:46.293Z,12.10
2017-11-23T20:25:50.676Z,12.10
2017-11-23T20:26:55.418Z,12.10
2017-11-23T20:27:59.920Z,12.10
2017-11-23T20:29:04.277Z,12.20
2017-11-23T20:30:09.431Z,12.10
2017-11-23T20:31:14.814Z,12.10
2017-11-23T20:32:20.176Z,12.10
2017-11-23T20:33:25.461Z,12.00
2017-11-23T20:34:29.807Z,12.00
2017-11-23T20:35:34.935Z,12.00
2017-11-23T20:36:40.146Z,12.00
2017-11-23T20:37:45.810Z,12.10
2017-11-23T20:38:50.187Z,12.10
2017-11-23T20:39:55.411Z,12.10
2017-11-23T20:40:59.818Z,12.10
2017-11-23T20:42:04.424Z,12.10
2017-11-23T20:43:08.758Z,12.10
2017-11-23T20:44:13.888Z,12.20
2017-11-23T20:45:19.054Z,12.20
2017-11-23T20:46:23.386Z,12.20
2017-11-23T20:47:27.840Z,12.30
2017-11-23T20:48:32.982Z,12.50
2017-11-23T20:49:38.382Z,12.50
2017-11-23T20:50:42.891Z,12.60
2017-11-23T20:51:47.213Z,12.80
2017-11-23T20:52:52.744Z,13.10
2017-11-23T20:53:57.842Z,13.20
2017-11-23T20:55:02.429Z,13.20
2017-11-23T20:56:06.805Z,13.30
2017-11-23T20:57:12.094Z,13.40
2017-11-23T20:58:16.650Z,13.40
2017-11-23T20:59:21.078Z,13.50
2017-11-23T21:00:26.839Z,13.40
2017-11-23T21:01:31.293Z,13.40
2017-11-23T21:02:36.479Z,13.30
2017-11-23T21:03:41.623Z,13.30
2017-11-23T21:04:46.063Z,13.30
2017-11-23T21:05:51.241Z,13.00
2017-11-23T21:06:55.856Z,13.10
2017-11-23T21:08:00.218Z,13.00
2017-11-23T21:09:06.099Z,13.20
2017-11-23T21:10:11.444Z,13.20
2017-11-23T21:11:17.107Z,13.20
2017-11-23T21:12:22.784Z,13.40
2017-11-23T21:13:27.388Z,13.40
2017-11-23T21:14:32.749Z,13.50
2017-11-23T21:15:37.629Z,13.60
2017-11-23T21:16:42.650Z,13.60
2017-11-23T21:17:47.935Z,13.70
2017-11-23T21:18:55.133Z,13.80
2017-11-23T21:20:00.401Z,13.80
2017-11-23T21:21:06.997Z,13.90
2017-11-23T21:22:12.789Z,13.90
2017-11-23T21:23:19.921Z,14.00
2017-11-23T21:24:24.720Z,14.00
2017-11-23T21:25:30.687Z,14.00
2017-11-23T21:26:36.631Z,14.00
2017-11-23T21:27:42.124Z,14.00
2017-11-23T21:28:48.947Z,14.00
2017-11-23T21:29:53.688Z,14.10
2017-11-23T21:30:58.403Z,14.10
2017-11-23T21:32:04.263Z,14.10
2017-11-23T21:33:10.576Z,14.10
2017-11-23T21:34:15.075Z,14.10
2017-11-23T21:35:19.735Z,14.20
2017-11-23T21:36:25.740Z,14.20
2017-11-23T21:37:30.359Z,14.20
2017-11-23T21:38:35.211Z,14.20
2017-11-23T21:39:40.271Z,14.20
2017-11-23T21:40:44.665Z,14.30
2017-11-23T21:41:49.030Z,14.30
2017-11-23T21:42:54.310Z,14.40
2017-11-23T21:43:58.714Z,14.40
2017-11-23T21:45:03.186Z,14.40
2017-11-23T21:46:07.512Z,14.40
2017-11-23T21:47:12.739Z,14.50
2017-11-23T21:48:17.138Z,14.50
2017-11-23T21:49:22.835Z,14.50
2017-11-23T21:50:27.151Z,14.50
2017-11-23T21:51:31.558Z,14.50
2017-11-23T21:52:35.947Z,14.40
2017-11-23T21:53:40.399Z,14.40
2017-11-23T21:54:45.251Z,14.20
2017-11-23T21:55:51.647Z,14.00
2017-11-23T21:56:55.999Z,14.00
2017-11-23T21:58:02.305Z,13.80
2017-11-23T21:59:06.801Z,13.80
2017-11-23T22:00:11.558Z,13.70
2017-11-23T22:01:16.305Z,13.60
2017-11-23T22:02:21.592Z,13.50
2017-11-23T22:03:26.912Z,13.40
2017-11-23T22:04:34.293Z,13.40
2017-11-23T22:05:38.680Z,13.30
2017-11-23T22:06:44.850Z,13.20
2017-11-23T22:07:49.222Z,13.10
2017-11-23T22:08:56.427Z,13.10
2017-11-23T22:10:00.822Z,13.00
2017-11-23T22:11:05.137Z,12.90
2017-11-23T22:12:09.544Z,12.90
2017-11-23T22:13:13.925Z,12.90
2017-11-23T22:14:18.511Z,12.90
2017-11-23T22:15:23.013Z,12.80
2017-11-23T22:16:27.388Z,12.80
2017-11-23T22:17:31.793Z,12.80
2017-11-23T22:18:37.112Z,12.80
2017-11-23T22:19:42.275Z,12.80
2017-11-23T22:20:46.613Z,12.80
2017-11-23T22:21:50.998Z,12.80
2017-11-23T22:22:55.468Z,12.70
2017-11-23T22:24:00.971Z,12.70
2017-11-23T22:25:05.393Z,12.70
2017-11-23T22:26:09.719Z,12.70
2017-11-23T22:27:14.838Z,12.70
2017-11-23T22:28:19.284Z,12.70
2017-11-23T22:29:24.170Z,12.60
2017-11-23T22:30:29.330Z,12.60
2017-11-23T22:31:33.660Z,12.60
2017-11-23T22:32:38.121Z,12.60
2017-11-23T22:33:43.244Z,12.60
2017-11-23T22:34:47.857Z,12.50
2017-11-23T22:35:53.192Z,12.60
2017-11-23T22:36:58.359Z,12.50
2017-11-23T22:38:02.712Z,12.50
2017-11-23T22:39:07.016Z,12.50
2017-11-23T22:40:11.417Z,12.50
2017-11-23T22:41:16.178Z,12.50
2017-11-23T22:42:20.599Z,12.50
2017-11-23T22:43:25.006Z,12.50
2017-11-23T22:44:29.429Z,12.40
2017-11-23T22:45:34.717Z,12.40
2017-11-23T22:46:39.348Z,12.40
2017-11-23T22:47:44.605Z,12.40
2017-11-23T22:48:49.117Z,12.40
2017-11-23T22:49:53.604Z,12.40
2017-11-23T22:50:58.058Z,12.40
2017-11-23T22:52:02.465Z,12.30
2017-11-23T22:53:07.182Z,12.30
2017-11-23T22:54:11.515Z,12.30
2017-11-23T22:55:16.213Z,12.40
2017-11-23T22:56:20.581Z,12.30
2017-11-23T22:57:25.633Z,12.30
2017-11-23T22:58:29.968Z,12.40
2017-11-23T22:59:34.667Z,12.40
2017-11-23T23:00:39.274Z,12.30
2017-11-23T23:01:43.571Z,12.30
2017-11-23T23:02:47.900Z,12.30
2017-11-23T23:03:52.238Z,12.30
2017-11-23T23:04:57.316Z,12.30
2017-11-23T23:06:01.657Z,12.30
2017-11-23T23:07:06.090Z,12.30
2017-11-23T23:08:11.234Z,12.30
2017-11-23T23:09:15.546Z,12.30
2017-11-23T23:10:19.879Z,12.30
2017-11-23T23:11:25.178Z,12.30
2017-11-23T23:12:29.566Z,12.30
2017-11-23T23:13:34.715Z,12.30
2017-11-23T23:14:39.181Z,12.30
2017-11-23T23:15:43.954Z,12.30
2017-11-23T23:16:48.798Z,12.30
2017-11-23T23:17:53.114Z,12.30
2017-11-23T23:18:58.225Z,12.30
2017-11-23T23:20:02.609Z,12.30
2017-11-23T23:21:06.943Z,12.30
2017-11-23T23:22:11.377Z,12.30
2017-11-23T23:23:16.365Z,12.30
2017-11-23T23:24:20.686Z,12.30
2017-11-23T23:25:25.274Z,12.20
2017-11-23T23:26:29.987Z,12.20
2017-11-23T23:27:34.612Z,12.20
2017-11-23T23:28:38.961Z,12.20
2017-11-23T23:29:44.139Z,12.10
2017-11-23T23:30:48.566Z,12.10
2017-11-23T23:31:52.891Z,12.10
2017-11-23T23:32:57.294Z,12.10
2017-11-23T23:34:01.672Z,12.10
2017-11-23T23:35:05.958Z,12.10
2017-11-23T23:36:11.104Z,12.10
2017-11-23T23:37:15.801Z,12.10
2017-11-23T23:38:20.838Z,12.10
2017-11-23T23:39:26.486Z,12.10
2017-11-23T23:40:30.815Z,12.10
2017-11-23T23:41:35.166Z,12.10
2017-11-23T23:42:40.298Z,12.10
2017-11-23T23:43:45.382Z,12.10
2017-11-23T23:44:49.700Z,12.10
2017-11-23T23:45:55.304Z,12.10
2017-11-23T23:46:59.815Z,12.10
2017-11-23T23:48:04.258Z,12.10
2017-11-23T23:49:08.656Z,12.10
2017-11-23T23:50:13.032Z,12.10
2017-11-23T23:51:17.398Z,12.10
2017-11-23T23:52:21.761Z,12.10
2017-11-23T23:53:26.742Z,12.10
2017-11-23T23:54:31.946Z,12.10
2017-11-23T23:55:36.534Z,12.10
2017-11-23T23:56:40.889Z,12.10
2017-11-23T23:57:45.301Z,12.10
2017-11-23T23:58:49.654Z,12.10
2017-11-23T23:59:54.036Z,12.10
